Time;durP1;ratioP1;P1;durP2;ratioP2;P2;SDS_P1;SDS_P2;PMS_P1;PMS_P2;Temp;Humidity;BMP_temperature;BMP_pressure;BME280_temperature;BME280_humidity;BME280_pressure;Samples;Min_cycle;Max_cycle;Signal;HPM_P1;HPM_P2
2022/04/12 00:01:33;;;;;;;1.42;0.82;;;19.90;45.30;;;;;;5074017;28;20037;-69
2022/04/12 00:04:00;;;;;;;1.45;0.90;;;19.80;45.30;;;;;;5074117;28;20036;-69
2022/04/12 00:06:26;;;;;;;2.22;1.08;;;19.90;45.30;;;;;;5073643;28;20410;-69
2022/04/12 00:08:52;;;;;;;1.70;0.82;;;19.80;45.30;;;;;;5073454;28;20119;-69
2022/04/12 00:11:18;;;;;;;1.17;0.98;;;19.80;45.30;;;;;;5073920;28;20562;-69
2022/04/12 00:13:43;;;;;;;1.05;0.90;;;19.90;45.40;;;;;;5072253;28;20418;-69
2022/04/12 00:16:09;;;;;;;1.35;0.80;;;19.90;45.40;;;;;;5073469;28;20048;-69
2022/04/12 00:21:19;;;;;;;1.50;0.80;;;19.80;45.30;;;;;;5073112;28;20040;-69
2022/04/12 00:23:46;;;;;;;1.70;1.00;;;19.80;45.30;;;;;;5073659;28;20044;-69
2022/04/12 00:26:12;;;;;;;0.82;0.80;;;19.80;45.30;;;;;;5072856;28;20048;-68
2022/04/12 00:28:38;;;;;;;0.90;0.70;;;19.80;45.40;;;;;;5072697;28;20558;-69
2022/04/12 00:31:04;;;;;;;1.42;0.85;;;19.80;45.30;;;;;;5073338;28;20093;-69
2022/04/12 00:33:29;;;;;;;1.45;0.85;;;19.80;45.40;;;;;;5073398;28;20442;-69
2022/04/12 00:35:58;;;;;;;1.45;0.82;;;19.80;45.40;;;;;;5072948;28;20044;-69
2022/04/12 00:38:24;;;;;;;1.17;0.80;;;19.80;45.40;;;;;;5073032;28;20121;-68
2022/04/12 00:40:50;;;;;;;1.10;1.00;;;19.80;45.40;;;;;;5073311;28;20483;-69
2022/04/12 00:43:20;;;;;;;2.33;0.95;;;19.80;45.40;;;;;;5072646;28;20049;-69
2022/04/12 00:45:48;;;;;;;2.25;0.88;;;19.80;45.50;;;;;;5073328;28;20048;-69
2022/04/12 00:48:14;;;;;;;1.35;1.00;;;19.70;45.40;;;;;;5073075;28;20848;-69
2022/04/12 00:50:41;;;;;;;1.50;0.80;;;19.70;45.40;;;;;;5072718;28;20128;-68
2022/04/12 00:53:08;;;;;;;1.42;0.90;;;19.70;45.40;;;;;;5073156;28;20052;-69
2022/04/12 00:55:34;;;;;;;0.80;0.75;;;19.70;45.40;;;;;;5073044;28;20487;-68
2022/04/12 00:58:06;;;;;;;2.25;0.90;;;19.70;45.40;;;;;;5072308;28;20086;-69
2022/04/12 01:00:33;;;;;;;1.30;1.00;;;19.70;45.50;;;;;;5072879;28;20036;-69
2022/04/12 01:02:58;;;;;;;0.90;0.80;;;19.70;45.50;;;;;;5071963;28;20067;-69
2022/04/12 01:05:24;;;;;;;1.13;0.90;;;19.70;45.50;;;;;;5072531;28;20040;-69
2022/04/12 01:07:50;;;;;;;1.50;0.80;;;19.70;45.50;;;;;;5072312;28;20523;-69
2022/04/12 01:10:16;;;;;;;1.65;0.90;;;19.70;45.50;;;;;;5072362;28;20137;-68
2022/04/12 01:12:42;;;;;;;1.05;0.95;;;19.70;45.50;;;;;;5071051;28;20510;-69
2022/04/12 01:15:10;;;;;;;1.33;0.88;;;19.70;45.50;;;;;;5072291;28;20039;-70
2022/04/12 01:17:36;;;;;;;;;;;19.60;45.40;;;;;;5073117;28;20052;-69
2022/04/12 01:20:01;;;;;;;1.38;0.90;;;19.60;45.40;;;;;;5061922;28;20368;-68
2022/04/12 01:22:29;;;;;;;1.13;0.85;;;19.60;45.50;;;;;;5059786;28;20484;-69
2022/04/12 01:24:55;;;;;;;1.58;1.00;;;19.60;45.40;;;;;;5072525;28;20434;-68
2022/04/12 01:27:21;;;;;;;1.85;0.93;;;19.60;45.40;;;;;;5072409;28;20048;-69
2022/04/12 01:29:49;;;;;;;1.42;0.80;;;19.60;45.40;;;;;;5071573;28;20500;-69
2022/04/12 01:32:15;;;;;;;0.93;0.80;;;19.60;45.50;;;;;;5070586;28;20127;-69
2022/04/12 01:34:40;;;;;;;2.22;1.15;;;19.60;45.50;;;;;;5071530;28;20127;-68
2022/04/12 01:37:07;;;;;;;1.27;0.90;;;19.60;45.50;;;;;;5071997;28;20036;-69
2022/04/12 01:39:33;;;;;;;1.67;0.88;;;19.60;45.50;;;;;;5072650;28;20041;-69
2022/04/12 01:41:59;;;;;;;2.20;0.82;;;19.60;45.50;;;;;;5072405;28;20033;-69
2022/04/12 01:44:24;;;;;;;1.45;1.00;;;19.60;45.50;;;;;;5061846;28;20072;-69
2022/04/12 01:46:50;;;;;;;1.63;0.80;;;19.60;45.50;;;;;;5070943;28;20066;-69
2022/04/12 01:49:16;;;;;;;1.00;0.80;;;19.50;45.40;;;;;;5071399;28;20094;-69
2022/04/12 01:51:42;;;;;;;1.70;0.90;;;19.50;45.50;;;;;;5070232;28;20098;-69
2022/04/12 01:54:09;;;;;;;2.05;1.00;;;19.50;45.50;;;;;;5070836;28;20047;-69
2022/04/12 01:56:34;;;;;;;1.30;1.00;;;19.50;45.50;;;;;;5072243;28;20048;-69
2022/04/12 01:59:02;;;;;;;1.00;0.90;;;19.50;45.40;;;;;;5070925;28;20033;-69
2022/04/12 02:01:28;;;;;;;1.25;1.00;;;19.50;45.50;;;;;;5071709;28;20544;-69
2022/04/12 02:03:55;;;;;;;1.40;0.95;;;19.50;45.50;;;;;;5071722;28;20138;-69
2022/04/12 02:06:20;;;;;;;1.38;0.93;;;19.50;45.50;;;;;;5071268;28;20059;-68
2022/04/12 02:08:46;;;;;;;1.88;0.93;;;19.50;45.50;;;;;;5071044;28;20042;-69
2022/04/12 02:11:12;;;;;;;1.63;1.02;;;19.50;45.40;;;;;;5071491;28;20044;-69
2022/04/12 02:13:37;;;;;;;1.98;1.10;;;19.50;45.50;;;;;;5070954;28;20356;-69
2022/04/12 02:16:03;;;;;;;1.30;1.00;;;19.50;45.50;;;;;;5070934;28;20084;-68
2022/04/12 02:18:29;;;;;;;1.15;0.90;;;19.50;45.50;;;;;;5071085;28;20032;-68
2022/04/12 02:20:55;;;;;;;1.45;0.98;;;19.50;45.50;;;;;;5070041;28;20078;-69
2022/04/12 02:23:21;;;;;;;1.25;0.90;;;19.40;46.20;;;;;;5071179;28;20047;-68
2022/04/12 02:25:47;;;;;;;2.28;1.08;;;19.40;45.50;;;;;;5071350;28;20052;-69
2022/04/12 02:28:16;;;;;;;0.95;0.82;;;19.50;45.50;;;;;;5070903;28;20051;-69
2022/04/12 02:30:43;;;;;;;1.92;0.90;;;19.50;45.50;;;;;;5071073;28;20068;-69
2022/04/12 02:33:09;;;;;;;1.63;0.95;;;19.40;45.50;;;;;;5069765;28;20048;-68
2022/04/12 02:35:35;;;;;;;1.00;0.88;;;19.40;45.50;;;;;;5070466;28;20080;-69
2022/04/12 02:38:01;;;;;;;1.10;0.77;;;19.40;45.50;;;;;;5069314;28;20079;-68
2022/04/12 02:40:26;;;;;;;1.20;1.02;;;19.40;45.50;;;;;;5070823;28;20040;-69
2022/04/12 02:42:52;;;;;;;1.00;0.90;;;19.40;45.50;;;;;;5070892;28;20044;-69
2022/04/12 02:45:18;;;;;;;1.73;0.90;;;19.40;45.50;;;;;;5070446;28;20059;-69
2022/04/12 02:47:43;;;;;;;1.60;1.00;;;19.40;45.50;;;;;;5071308;28;20085;-69
2022/04/12 02:50:09;;;;;;;1.35;1.00;;;19.40;45.50;;;;;;5069883;28;20044;-68
2022/04/12 02:52:35;;;;;;;1.35;0.90;;;19.40;45.50;;;;;;5070708;28;20495;-69
2022/04/12 02:55:01;;;;;;;1.23;0.90;;;19.40;45.50;;;;;;5070696;28;20040;-69
2022/04/12 02:57:26;;;;;;;1.05;0.90;;;19.40;45.50;;;;;;5069764;28;20047;-69
2022/04/12 02:59:52;;;;;;;1.58;1.00;;;19.30;45.40;;;;;;5069926;28;20048;-69
2022/04/12 03:02:17;;;;;;;1.00;0.90;;;19.30;45.40;;;;;;5070656;28;20395;-69
2022/04/12 03:04:43;;;;;;;1.60;1.00;;;19.40;45.50;;;;;;5070856;28;20510;-69
2022/04/12 03:07:09;;;;;;;1.85;1.10;;;19.40;45.50;;;;;;5070378;28;20418;-69
2022/04/12 03:09:35;;;;;;;1.00;0.85;;;19.30;45.40;;;;;;5070301;28;20047;-69
2022/04/12 03:12:01;;;;;;;1.00;0.90;;;19.30;45.40;;;;;;5070792;28;20147;-69
2022/04/12 03:14:27;;;;;;;2.25;1.00;;;19.30;45.40;;;;;;5068922;28;20044;-69
2022/04/12 03:16:53;;;;;;;1.55;1.00;;;19.30;45.50;;;;;;5070421;28;20044;-69
2022/04/12 03:19:18;;;;;;;1.35;0.90;;;19.30;45.40;;;;;;5070509;28;20044;-69
2022/04/12 03:21:44;;;;;;;1.70;1.00;;;19.30;45.50;;;;;;5069844;28;20051;-69
2022/04/12 03:24:10;;;;;;;2.65;1.00;;;19.30;45.50;;;;;;5070682;28;20044;-69
2022/04/12 03:26:36;;;;;;;1.50;1.10;;;19.30;45.50;;;;;;5070880;28;20491;-69
2022/04/12 03:29:02;;;;;;;1.13;0.90;;;19.20;45.50;;;;;;5069783;28;20090;-69
2022/04/12 03:31:28;;;;;;;1.35;1.00;;;19.30;45.50;;;;;;5069483;28;20040;-69
2022/04/12 03:33:53;;;;;;;1.27;0.90;;;19.30;45.50;;;;;;5074848;28;20044;-69
2022/04/12 03:36:19;;;;;;;1.50;0.90;;;19.20;45.50;;;;;;5074668;28;20047;-69
2022/04/12 03:38:48;;;;;;;1.38;0.90;;;19.20;45.50;;;;;;5074515;28;20048;-69
2022/04/12 03:41:22;;;;;;;1.33;1.00;;;19.30;45.50;;;;;;5074489;28;20083;-69
2022/04/12 03:43:48;;;;;;;1.10;0.80;;;19.20;45.50;;;;;;5074038;28;20036;-69
2022/04/12 03:46:14;;;;;;;1.63;0.82;;;19.20;45.50;;;;;;5074380;28;20502;-69
2022/04/12 03:48:40;;;;;;;1.20;1.00;;;19.20;45.50;;;;;;5074082;28;20055;-68
2022/04/12 03:51:06;;;;;;;1.00;0.90;;;19.20;45.50;;;;;;5073661;28;20040;-68
2022/04/12 03:53:31;;;;;;;1.10;1.00;;;19.20;45.50;;;;;;5074308;28;20052;-69
2022/04/12 03:55:57;;;;;;;1.45;1.10;;;19.20;45.50;;;;;;5074215;28;20036;-69
2022/04/12 03:58:23;;;;;;;1.90;1.13;;;19.20;45.50;;;;;;5073346;28;20052;-69
2022/04/12 04:00:49;;;;;;;1.17;1.00;;;19.20;45.60;;;;;;5074037;28;20039;-69
2022/04/12 04:03:18;;;;;;;1.30;0.93;;;19.20;45.60;;;;;;5074083;28;20045;-69
2022/04/12 04:05:48;;;;;;;2.35;1.08;;;19.20;45.60;;;;;;5073508;28;20105;-69
2022/04/12 04:08:13;;;;;;;1.30;0.95;;;19.20;45.60;;;;;;5073301;28;20043;-69
2022/04/12 04:10:39;;;;;;;1.13;1.00;;;19.10;45.50;;;;;;5072090;28;20127;-69
2022/04/12 04:13:08;;;;;;;1.77;1.00;;;19.10;45.50;;;;;;5073229;28;20040;-69
2022/04/12 04:15:40;;;;;;;1.38;1.10;;;19.10;45.60;;;;;;5055251;28;20055;-68
2022/04/12 04:18:09;;;;;;;1.40;1.00;;;19.20;46.40;;;;;;5073056;28;20040;-69
2022/04/12 04:20:35;;;;;;;1.20;1.00;;;19.10;45.60;;;;;;5073496;28;20032;-69
2022/04/12 04:23:02;;;;;;;1.48;1.05;;;19.10;45.60;;;;;;5073531;28;20094;-69
2022/04/12 04:25:28;;;;;;;1.50;1.08;;;19.10;45.60;;;;;;5073632;28;20066;-69
2022/04/12 04:27:55;;;;;;;1.40;0.95;;;19.10;45.60;;;;;;5073197;28;20040;-68
2022/04/12 04:30:21;;;;;;;2.10;1.25;;;19.10;45.60;;;;;;5073170;28;20406;-69
2022/04/12 04:32:47;;;;;;;1.70;1.10;;;19.10;45.60;;;;;;5073353;28;20036;-69
2022/04/12 04:35:13;;;;;;;1.10;0.90;;;19.10;45.60;;;;;;5073039;28;20498;-69
2022/04/12 04:37:49;;;;;;;1.55;1.17;;;19.10;45.60;;;;;;5073628;28;20033;-69
2022/04/12 04:40:16;;;;;;;1.10;1.00;;;19.10;45.60;;;;;;5073011;28;20518;-69
2022/04/12 04:42:44;;;;;;;1.13;1.02;;;19.10;45.60;;;;;;5073272;28;20036;-69
2022/04/12 04:45:15;;;;;;;1.30;1.20;;;19.10;45.60;;;;;;5072055;28;20040;-69
2022/04/12 04:47:55;;;;;;;1.73;1.20;;;19.10;45.60;;;;;;5073332;28;20044;-69
2022/04/12 04:50:22;;;;;;;1.30;1.00;;;19.00;45.60;;;;;;5072896;28;20128;-69
2022/04/12 04:52:49;;;;;;;2.55;1.10;;;19.00;45.60;;;;;;5073158;28;20045;-69
2022/04/12 04:55:15;;;;;;;1.60;1.10;;;19.00;45.60;;;;;;5073129;28;20399;-69
2022/04/12 04:57:42;;;;;;;1.58;1.10;;;19.00;45.60;;;;;;5073066;28;20052;-69
2022/04/12 05:00:15;;;;;;;1.23;1.08;;;19.00;45.60;;;;;;5070716;28;20055;-69
2022/04/12 05:02:45;;;;;;;1.65;1.00;;;19.00;45.60;;;;;;5053880;28;20048;-69
2022/04/12 05:05:11;;;;;;;2.28;1.17;;;19.00;45.60;;;;;;5052552;28;20068;-69
2022/04/12 05:07:42;;;;;;;1.48;1.13;;;19.00;45.60;;;;;;5052091;28;20036;-69
2022/04/12 05:10:12;;;;;;;1.77;1.25;;;19.00;45.60;;;;;;5052177;28;20045;-69
2022/04/12 05:12:37;;;;;;;1.10;1.00;;;19.00;45.60;;;;;;5052473;28;20040;-69
2022/04/12 05:15:03;;;;;;;1.17;1.00;;;19.00;45.60;;;;;;5051922;28;20568;-68
2022/04/12 05:17:29;;;;;;;1.40;1.00;;;19.00;45.70;;;;;;5052682;28;20577;-69
2022/04/12 05:19:56;;;;;;;1.50;0.93;;;19.00;45.70;;;;;;5052215;28;20037;-69
2022/04/12 05:22:22;;;;;;;2.38;1.17;;;19.00;45.70;;;;;;5058351;28;20043;-69
2022/04/12 05:24:49;;;;;;;1.50;1.10;;;19.00;45.70;;;;;;5072570;28;20118;-69
2022/04/12 05:27:15;;;;;;;1.20;1.05;;;19.00;45.70;;;;;;5071349;28;20048;-68
2022/04/12 05:29:41;;;;;;;1.45;1.05;;;19.00;45.70;;;;;;5071298;28;20073;-69
2022/04/12 05:32:09;;;;;;;1.75;1.00;;;19.00;45.70;;;;;;5072516;28;20044;-69
2022/04/12 05:34:36;;;;;;;3.28;0.90;;;19.00;45.70;;;;;;5072342;28;20052;-69
2022/04/12 05:37:03;;;;;;;1.93;1.07;;;19.00;45.70;;;;;;5071816;28;20052;-69
2022/04/12 05:39:28;;;;;;;1.45;1.00;;;19.00;45.70;;;;;;5072313;28;20043;-69
2022/04/12 05:41:54;;;;;;;1.15;0.90;;;19.00;45.70;;;;;;5072187;28;20119;-69
2022/04/12 05:44:20;;;;;;;1.73;1.15;;;19.00;45.70;;;;;;5066707;28;20107;-68
2022/04/12 05:46:45;;;;;;;1.20;1.10;;;19.00;45.70;;;;;;5070696;28;20128;-69
2022/04/12 05:49:11;;;;;;;1.35;0.85;;;19.00;45.70;;;;;;5071437;28;20041;-69
2022/04/12 05:51:36;;;;;;;1.45;1.08;;;19.00;45.70;;;;;;5071329;28;20044;-69
2022/04/12 05:54:02;;;;;;;1.20;1.00;;;19.00;45.70;;;;;;5071833;28;20040;-69
2022/04/12 05:56:28;;;;;;;2.22;1.10;;;19.10;45.70;;;;;;5071002;28;20439;-69
2022/04/12 05:58:54;;;;;;;1.52;1.02;;;19.00;45.70;;;;;;5071630;28;20074;-69
2022/04/12 06:01:19;;;;;;;1.40;1.27;;;19.10;45.80;;;;;;5071402;28;20559;-69
2022/04/12 06:03:45;;;;;;;1.58;1.10;;;19.10;45.70;;;;;;5071330;28;20131;-69
2022/04/12 06:06:12;;;;;;;1.88;1.10;;;19.10;45.70;;;;;;5071134;28;20051;-69
2022/04/12 06:08:37;;;;;;;1.15;1.05;;;19.10;45.70;;;;;;5071039;28;20048;-69
2022/04/12 06:11:03;;;;;;;1.75;1.20;;;19.10;45.70;;;;;;5053651;28;20044;-69
2022/04/12 06:13:29;;;;;;;1.75;1.15;;;19.10;45.70;;;;;;5071452;28;20063;-69
2022/04/12 06:15:54;;;;;;;1.90;1.13;;;19.10;45.80;;;;;;5069050;28;20059;-69
2022/04/12 06:18:20;;;;;;;1.67;1.10;;;19.10;45.80;;;;;;5070921;28;20281;-69
2022/04/12 06:20:45;;;;;;;1.33;1.20;;;19.10;45.80;;;;;;5070871;28;20072;-69
2022/04/12 06:23:11;;;;;;;1.33;1.20;;;19.10;45.80;;;;;;5071185;28;20048;-69
2022/04/12 06:25:37;;;;;;;1.70;1.10;;;19.10;45.70;;;;;;5071310;28;20053;-69
2022/04/12 06:28:03;;;;;;;1.58;1.10;;;19.20;45.80;;;;;;5071071;28;20463;-69
2022/04/12 06:30:30;;;;;;;1.52;1.23;;;19.10;45.80;;;;;;5070558;28;20140;-69
2022/04/12 06:32:56;;;;;;;2.92;1.20;;;19.10;45.70;;;;;;5071335;28;20043;-69
2022/04/12 06:35:22;;;;;;;1.27;1.00;;;19.10;45.70;;;;;;5070608;28;20148;-69
2022/04/12 06:37:59;;;;;;;1.85;1.30;;;19.10;45.70;;;;;;5070891;28;20060;-69
2022/04/12 06:40:25;;;;;;;2.25;1.40;;;19.20;45.70;;;;;;5071115;28;20033;-69
2022/04/12 06:42:51;;;;;;;2.03;1.33;;;19.10;45.70;;;;;;5071328;28;20036;-69
2022/04/12 06:45:17;;;;;;;2.28;1.45;;;19.20;45.70;;;;;;5070498;28;20480;-69
2022/04/12 06:47:43;;;;;;;1.35;1.00;;;19.20;45.70;;;;;;5071165;28;20048;-68
2022/04/12 06:50:11;;;;;;;1.52;1.25;;;19.20;45.70;;;;;;5070034;28;20139;-69
2022/04/12 06:52:37;;;;;;;2.22;1.45;;;19.20;45.70;;;;;;5070934;28;20399;-69
2022/04/12 06:55:04;;;;;;;1.67;1.38;;;19.20;45.70;;;;;;5070801;28;20549;-69
2022/04/12 06:57:34;;;;;;;1.85;1.30;;;19.20;45.70;;;;;;5070896;28;20380;-69
2022/04/12 07:00:01;;;;;;;2.70;1.25;;;19.20;45.60;;;;;;5070527;28;20098;-69
2022/04/12 07:02:26;;;;;;;1.20;1.10;;;19.20;45.60;;;;;;5069989;28;20044;-69
2022/04/12 07:04:52;;;;;;;1.60;1.27;;;19.20;45.60;;;;;;5070676;28;20040;-69
2022/04/12 07:07:18;;;;;;;1.30;1.15;;;19.20;45.60;;;;;;5070447;28;20083;-69
2022/04/12 07:09:45;;;;;;;1.80;1.27;;;19.20;45.50;;;;;;5068820;28;20127;-69
2022/04/12 07:12:10;;;;;;;1.52;1.20;;;19.20;45.50;;;;;;5069373;28;20036;-69
2022/04/12 07:14:36;;;;;;;1.35;1.15;;;19.20;45.50;;;;;;5070610;28;20126;-69
2022/04/12 07:17:03;;;;;;;1.80;1.40;;;19.20;45.50;;;;;;5070027;28;20058;-69
2022/04/12 07:19:29;;;;;;;2.45;1.40;;;19.20;45.40;;;;;;5063389;28;20036;-69
2022/04/12 07:21:55;;;;;;;2.30;1.60;;;19.20;45.50;;;;;;5069237;28;20043;-69
2022/04/12 07:24:21;;;;;;;1.88;1.50;;;19.20;45.40;;;;;;5070337;28;20086;-69
2022/04/12 07:26:46;;;;;;;2.30;1.50;;;19.20;45.40;;;;;;5070514;28;20048;-69
2022/04/12 07:29:12;;;;;;;2.03;1.40;;;19.20;45.30;;;;;;5069911;28;20041;-69
2022/04/12 07:31:38;;;;;;;1.50;1.33;;;19.20;45.20;;;;;;5069777;28;20170;-69
2022/04/12 07:34:04;;;;;;;1.83;1.52;;;19.20;45.30;;;;;;5070329;28;20036;-69
2022/04/12 07:36:30;;;;;;;1.92;1.50;;;19.20;45.40;;;;;;5070320;28;20052;-69
2022/04/12 07:38:56;;;;;;;2.22;1.60;;;19.30;45.60;;;;;;5069670;28;20036;-69
2022/04/12 07:41:21;;;;;;;2.30;1.33;;;19.30;45.70;;;;;;5070156;28;20036;-69
2022/04/12 07:43:49;;;;;;;2.40;1.50;;;19.30;45.80;;;;;;5070441;28;20032;-69
2022/04/12 07:46:15;;;;;;;3.53;1.48;;;19.40;46.00;;;;;;5070457;28;20044;-69
2022/04/12 07:48:41;;;;;;;2.95;1.50;;;19.40;46.10;;;;;;5069313;28;20044;-69
2022/04/12 07:51:07;;;;;;;1.92;1.33;;;19.40;46.10;;;;;;5069853;28;20051;-69
2022/04/12 07:53:33;;;;;;;3.08;1.30;;;19.50;46.20;;;;;;5070144;28;20036;-69
2022/04/12 07:55:59;;;;;;;3.17;1.20;;;19.50;46.30;;;;;;5068901;28;20518;-69
2022/04/12 07:58:25;;;;;;;2.90;1.52;;;19.60;46.30;;;;;;5069577;28;20124;-69
2022/04/12 08:00:51;;;;;;;1.60;1.40;;;19.60;46.40;;;;;;5070165;28;20135;-69
2022/04/12 08:03:20;;;;;;;1.70;1.30;;;19.70;46.30;;;;;;5069323;28;20055;-69
2022/04/12 08:05:49;;;;;;;1.52;1.42;;;19.70;46.30;;;;;;5069082;28;20373;-69
2022/04/12 08:08:15;;;;;;;1.88;1.50;;;19.80;46.40;;;;;;5065971;28;20033;-69
2022/04/12 08:10:41;;;;;;;2.10;1.40;;;19.80;46.30;;;;;;5050034;28;20094;-69
2022/04/12 08:13:07;;;;;;;1.73;1.50;;;19.90;46.30;;;;;;5066554;28;20036;-69
2022/04/12 08:15:32;;;;;;;1.77;1.38;;;19.90;46.30;;;;;;5069453;28;20526;-69
2022/04/12 08:17:58;;;;;;;1.98;1.17;;;20.00;46.30;;;;;;5069296;28;20055;-69
2022/04/12 08:20:23;;;;;;;3.05;1.30;;;20.00;46.30;;;;;;5072938;28;20045;-69
2022/04/12 08:22:52;;;;;;;2.10;1.38;;;20.10;46.30;;;;;;5072882;28;20032;-69
2022/04/12 08:25:18;;;;;;;1.85;1.33;;;20.10;46.20;;;;;;5073947;28;20040;-69
2022/04/12 08:27:44;;;;;;;3.97;1.50;;;20.20;46.20;;;;;;5074210;28;20124;-69
2022/04/12 08:30:10;;;;;;;1.63;1.40;;;20.20;46.10;;;;;;5074219;28;20097;-69
2022/04/12 08:32:36;;;;;;;1.70;1.20;;;20.30;46.10;;;;;;5073495;28;20051;-69
2022/04/12 08:35:04;;;;;;;2.08;1.23;;;20.30;46.00;;;;;;5073546;28;20429;-69
2022/04/12 08:37:29;;;;;;;1.63;1.38;;;20.40;46.00;;;;;;5073200;28;20101;-69
2022/04/12 08:39:55;;;;;;;2.60;1.50;;;20.40;45.90;;;;;;5073854;28;20500;-69
2022/04/12 08:42:21;;;;;;;3.17;1.48;;;20.40;45.80;;;;;;5073247;28;20044;-68
2022/04/12 08:44:49;;;;;;;2.53;1.38;;;20.50;45.80;;;;;;5073026;28;20395;-69
2022/04/12 08:47:16;;;;;;;1.70;1.30;;;20.50;45.70;;;;;;5072908;28;20083;-69
2022/04/12 08:49:43;;;;;;;2.53;1.65;;;20.60;45.70;;;;;;5072946;28;20047;-69
2022/04/12 08:52:12;;;;;;;2.15;1.30;;;20.60;45.60;;;;;;5072646;28;20036;-69
2022/04/12 08:54:43;;;;;;;2.60;1.65;;;20.70;45.50;;;;;;5072223;28;20086;-69
2022/04/12 08:57:10;;;;;;;2.17;1.40;;;20.70;45.50;;;;;;5073056;28;20043;-69
2022/04/12 08:59:37;;;;;;;2.70;1.50;;;20.70;45.40;;;;;;5052739;28;20045;-69
2022/04/12 09:02:06;;;;;;;1.35;1.25;;;20.80;45.30;;;;;;5052502;28;20047;-69
2022/04/12 09:04:33;;;;;;;2.13;1.50;;;20.80;45.30;;;;;;5053174;28;20033;-69
2022/04/12 09:07:00;;;;;;;1.98;1.30;;;20.80;45.20;;;;;;5052713;28;20045;-69
2022/04/12 09:09:27;;;;;;;2.83;1.35;;;20.90;45.20;;;;;;5052698;28;20041;-69
2022/04/12 09:12:13;;;;;;;1.33;1.23;;;20.90;45.10;;;;;;5052676;28;20041;-69
2022/04/12 09:14:43;;;;;;;4.03;1.48;;;20.90;45.00;;;;;;5052975;28;20047;-69
2022/04/12 09:17:13;;;;;;;1.65;1.38;;;20.90;45.00;;;;;;5052187;28;20053;-69
2022/04/12 09:19:48;;;;;;;2.05;1.40;;;21.00;44.90;;;;;;5052400;28;20052;-69
2022/04/12 09:22:18;;;;;;;2.08;1.50;;;21.00;44.80;;;;;;5056553;28;20045;-69
2022/04/12 09:24:48;;;;;;;1.60;1.30;;;21.00;44.80;;;;;;5072912;28;20479;-69
2022/04/12 09:27:15;;;;;;;1.38;1.27;;;21.00;44.80;;;;;;5071265;28;20052;-69
2022/04/12 09:29:47;;;;;;;3.90;1.38;;;21.10;44.80;;;;;;5072123;28;20055;-69
2022/04/12 09:32:16;;;;;;;1.55;1.25;;;21.10;44.70;;;;;;5072132;28;20055;-69
2022/04/12 09:34:44;;;;;;;3.15;1.27;;;21.10;44.80;;;;;;5072305;28;20037;-69
2022/04/12 09:37:27;;;;;;;2.30;1.43;;;21.10;44.70;;;;;;5070372;28;20130;-69
2022/04/12 09:40:05;;;;;;;1.90;1.35;;;21.20;44.70;;;;;;5072200;28;20028;-69
2022/04/12 09:42:52;;;;;;;2.38;1.30;;;21.20;44.60;;;;;;5071111;28;20048;-69
2022/04/12 09:45:27;;;;;;;2.10;1.27;;;21.20;44.60;;;;;;5072506;28;20036;-69
2022/04/12 09:48:04;;;;;;;2.38;1.30;;;21.20;44.60;;;;;;5071225;28;20550;-69
2022/04/12 09:50:31;;;;;;;1.50;1.40;;;21.20;44.50;;;;;;5072768;28;20044;-69
2022/04/12 09:52:59;;;;;;;3.08;1.50;;;21.30;44.50;;;;;;5071401;28;20036;-69
2022/04/12 09:55:37;;;;;;;1.92;1.30;;;21.30;44.50;;;;;;5072408;28;20040;-69
2022/04/12 09:58:04;;;;;;;1.70;1.30;;;21.30;44.50;;;;;;5071695;28;20041;-69
2022/04/12 10:00:30;;;;;;;2.30;1.52;;;21.30;44.50;;;;;;5072091;28;20051;-69
2022/04/12 10:03:04;;;;;;;2.03;1.30;;;21.30;44.40;;;;;;5071334;28;20119;-69
2022/04/12 10:05:31;;;;;;;1.70;1.30;;;21.30;44.40;;;;;;5072123;28;20067;-69
2022/04/12 10:08:00;;;;;;;2.28;1.48;;;21.30;44.40;;;;;;5071131;28;20395;-69
2022/04/12 10:10:29;;;;;;;2.22;1.50;;;21.30;44.40;;;;;;5071904;28;20060;-69
2022/04/12 10:12:56;;;;;;;1.52;1.40;;;21.30;44.40;;;;;;5071455;28;20169;-69
2022/04/12 10:15:22;;;;;;;2.25;1.55;;;21.30;44.40;;;;;;5071217;28;20443;-69
2022/04/12 10:17:52;;;;;;;1.42;1.30;;;21.30;44.40;;;;;;5071190;28;20048;-69
2022/04/12 10:20:18;;;;;;;2.58;1.40;;;21.30;44.40;;;;;;5072072;28;20048;-68
2022/04/12 10:22:48;;;;;;;2.35;1.45;;;21.30;44.30;;;;;;5071349;28;20078;-69
2022/04/12 10:25:24;;;;;;;1.92;1.30;;;21.30;44.20;;;;;;5071089;28;20087;-69
2022/04/12 10:27:55;;;;;;;2.20;1.38;;;21.40;44.30;;;;;;5071737;28;20487;-69
2022/04/12 10:30:26;;;;;;;2.97;1.50;;;21.40;44.30;;;;;;5071423;28;20127;-69
2022/04/12 10:33:01;;;;;;;3.30;1.50;;;21.40;44.30;;;;;;5070575;28;20045;-69
2022/04/12 10:35:47;;;;;;;1.95;1.40;;;21.40;44.30;;;;;;5071475;28;20067;-69
2022/04/12 10:38:15;;;;;;;2.05;1.30;;;21.40;45.10;;;;;;5048965;28;20048;-69
2022/04/12 10:40:51;;;;;;;1.98;1.33;;;21.40;44.30;;;;;;5051434;28;20187;-69
2022/04/12 10:43:40;;;;;;;1.73;1.30;;;21.40;44.30;;;;;;5050947;28;20047;-68
2022/04/12 10:46:08;;;;;;;2.42;1.58;;;21.40;44.20;;;;;;5048401;28;20080;-69
2022/04/12 10:48:34;;;;;;;3.08;1.60;;;21.40;44.30;;;;;;5049993;28;20120;-69
2022/04/12 10:51:02;;;;;;;2.95;1.38;;;21.40;44.30;;;;;;5051612;28;20049;-69
2022/04/12 10:53:39;;;;;;;1.83;1.38;;;21.40;44.30;;;;;;5051089;28;20048;-69
2022/04/12 10:56:10;;;;;;;1.77;1.30;;;21.50;44.30;;;;;;5051524;28;20048;-69
2022/04/12 10:58:37;;;;;;;2.15;1.40;;;21.40;44.20;;;;;;5051447;28;20032;-69
2022/04/12 11:01:04;;;;;;;1.70;1.20;;;21.40;44.20;;;;;;5050212;28;20047;-69
2022/04/12 11:03:43;;;;;;;1.90;1.33;;;21.40;44.10;;;;;;5050594;28;20365;-69
2022/04/12 11:06:13;;;;;;;2.28;1.50;;;21.40;44.10;;;;;;5051168;28;20105;-69
2022/04/12 11:08:38;;;;;;;3.30;1.40;;;21.40;44.10;;;;;;5049902;28;20037;-69
2022/04/12 11:11:04;;;;;;;1.95;1.48;;;21.50;44.10;;;;;;5050813;28;20385;-68
2022/04/12 11:13:32;;;;;;;2.50;1.70;;;21.50;44.10;;;;;;5059911;28;20051;-69
2022/04/12 11:16:10;;;;;;;2.03;1.42;;;21.50;44.10;;;;;;5070271;28;20048;-69
2022/04/12 11:18:51;;;;;;;2.75;1.30;;;21.50;44.10;;;;;;5067992;28;20041;-69
2022/04/12 11:21:22;;;;;;;3.05;1.50;;;21.50;44.00;;;;;;5068034;28;20083;-69
2022/04/12 11:24:00;;;;;;;2.38;1.55;;;21.50;44.00;;;;;;5070124;28;20040;-69
2022/04/12 11:26:36;;;;;;;;;;;21.50;44.00;;;;;;5071243;28;20048;-69
2022/04/12 11:29:05;;;;;;;1.80;1.40;;;21.50;44.00;;;;;;5070650;28;19927;-68
2022/04/12 11:31:31;;;;;;;1.90;1.40;;;21.50;44.00;;;;;;5070770;28;20097;-69
2022/04/12 11:33:57;;;;;;;2.53;1.38;;;21.50;44.00;;;;;;5069754;28;20393;-69
2022/04/12 11:36:24;;;;;;;1.45;1.27;;;21.50;44.00;;;;;;5069089;28;20045;-69
2022/04/12 11:38:49;;;;;;;2.80;1.30;;;21.60;43.90;;;;;;5069452;28;20037;-69
2022/04/12 11:41:16;;;;;;;1.98;1.60;;;21.60;43.90;;;;;;5070548;28;20036;-69
2022/04/12 11:43:41;;;;;;;2.22;1.40;;;21.60;43.90;;;;;;5069250;28;20419;-68
2022/04/12 11:46:07;;;;;;;3.13;1.60;;;21.60;43.80;;;;;;5069451;28;20044;-69
2022/04/12 11:48:33;;;;;;;2.85;1.73;;;21.60;43.80;;;;;;5069241;28;20041;-69
2022/04/12 11:51:04;;;;;;;1.77;1.45;;;21.60;43.80;;;;;;5070353;28;20094;-69
2022/04/12 11:53:30;;;;;;;2.05;1.60;;;21.70;43.80;;;;;;5071553;28;20071;-69
2022/04/12 11:56:00;;;;;;;3.35;1.70;;;21.70;43.70;;;;;;5073385;28;20086;-69
2022/04/12 11:58:28;;;;;;;1.77;1.35;;;21.70;43.70;;;;;;5074724;28;20552;-69
2022/04/12 12:00:54;;;;;;;1.88;1.45;;;21.70;43.70;;;;;;5074457;28;20487;-69
2022/04/12 12:03:19;;;;;;;1.98;1.40;;;21.70;43.70;;;;;;5073481;28;20052;-69
2022/04/12 12:05:45;;;;;;;3.55;1.80;;;21.70;43.60;;;;;;5074177;28;20047;-69
2022/04/12 12:08:12;;;;;;;2.72;1.70;;;21.80;43.50;;;;;;5065848;28;20052;-69
2022/04/12 12:10:38;;;;;;;1.75;1.40;;;21.80;43.50;;;;;;5054112;28;20059;-69
2022/04/12 12:13:07;;;;;;;3.13;1.60;;;21.80;43.50;;;;;;5053866;28;20399;-68
2022/04/12 12:15:34;;;;;;;2.33;1.60;;;21.90;43.50;;;;;;5057627;28;20091;-69
2022/04/12 12:18:06;;;;;;;2.42;1.55;;;21.90;43.40;;;;;;5073121;28;20052;-68
2022/04/12 12:20:36;;;;;;;2.63;1.60;;;21.90;43.40;;;;;;5073618;28;20082;-69
2022/04/12 12:23:08;;;;;;;2.85;1.65;;;22.00;43.50;;;;;;5072556;28;20445;-68
2022/04/12 12:25:55;;;;;;;2.08;1.45;;;22.00;43.40;;;;;;5074139;28;20087;-69
2022/04/12 12:28:25;;;;;;;2.42;1.70;;;22.10;43.40;;;;;;5072199;28;20036;-69
2022/04/12 12:31:01;;;;;;;2.53;1.67;;;22.20;43.30;;;;;;5073505;28;20036;-69
2022/04/12 12:33:41;;;;;;;2.47;1.58;;;22.50;42.90;;;;;;5072924;28;20040;-69
2022/04/12 12:36:27;;;;;;;4.90;1.70;;;22.70;42.40;;;;;;5073763;28;20123;-69
2022/04/12 12:38:53;;;;;;;2.10;1.42;;;23.10;42.00;;;;;;5072484;28;20102;-69
2022/04/12 12:41:24;;;;;;;2.50;1.50;;;23.30;41.60;;;;;;5073153;28;20488;-69
2022/04/12 12:43:55;;;;;;;1.92;1.67;;;23.50;41.10;;;;;;5073181;28;20041;-69
2022/04/12 12:46:20;;;;;;;2.28;1.70;;;23.70;40.90;;;;;;5073208;28;20161;-69
2022/04/12 12:48:47;;;;;;;2.35;1.67;;;23.90;40.70;;;;;;5072280;28;20040;-69
2022/04/12 12:51:13;;;;;;;3.90;1.90;;;24.00;40.40;;;;;;5072473;28;20373;-69
2022/04/12 12:53:40;;;;;;;3.80;1.70;;;24.10;40.10;;;;;;5072664;28;20040;-69